sensor_id;sensor_type;location;lat;lon;timestamp;temperature;humidity
9971;DHT22;5026;51.494;11.974;2022-10-15T00:01:14;14.90;99.90
9971;DHT22;5026;51.494;11.974;2022-10-15T00:03:42;14.90;99.90
9971;DHT22;5026;51.494;11.974;2022-10-15T00:06:12;14.90;99.90
9971;DHT22;5026;51.494;11.974;2022-10-15T00:08:39;14.90;99.90
9971;DHT22;5026;51.494;11.974;2022-10-15T00:11:08;14.90;99.90
9971;DHT22;5026;51.494;11.974;2022-10-15T00:13:36;14.90;99.90
9971;DHT22;5026;51.494;11.974;2022-10-15T00:16:06;14.90;99.90
9971;DHT22;5026;51.494;11.974;2022-10-15T00:18:33;14.90;99.90
9971;DHT22;5026;51.494;11.974;2022-10-15T00:23:27;14.90;99.90
9971;DHT22;5026;51.494;11.974;2022-10-15T00:26:02;14.90;99.90
9971;DHT22;5026;51.494;11.974;2022-10-15T00:31:00;14.90;99.90
9971;DHT22;5026;51.494;11.974;2022-10-15T00:33:28;14.90;99.90
9971;DHT22;5026;51.494;11.974;2022-10-15T00:36:01;14.90;99.90
9971;DHT22;5026;51.494;11.974;2022-10-15T00:38:28;14.80;99.90
9971;DHT22;5026;51.494;11.974;2022-10-15T00:40:55;14.90;99.90
9971;DHT22;5026;51.494;11.974;2022-10-15T00:43:39;14.90;99.90
9971;DHT22;5026;51.494;11.974;2022-10-15T00:46:18;14.80;99.90
9971;DHT22;5026;51.494;11.974;2022-10-15T00:48:49;14.90;99.90
9971;DHT22;5026;51.494;11.974;2022-10-15T00:51:18;14.80;99.90
9971;DHT22;5026;51.494;11.974;2022-10-15T00:53:46;14.70;99.90
9971;DHT22;5026;51.494;11.974;2022-10-15T00:56:15;14.80;99.90
9971;DHT22;5026;51.494;11.974;2022-10-15T01:01:11;16.00;99.90
9971;DHT22;5026;51.494;11.974;2022-10-15T01:03:38;14.70;99.90
9971;DHT22;5026;51.494;11.974;2022-10-15T01:06:07;14.60;99.90
9971;DHT22;5026;51.494;11.974;2022-10-15T01:08:34;14.60;99.90
9971;DHT22;5026;51.494;11.974;2022-10-15T01:11:09;14.70;99.90
9971;DHT22;5026;51.494;11.974;2022-10-15T01:13:46;14.70;99.90
9971;DHT22;5026;51.494;11.974;2022-10-15T01:16:18;14.70;99.90
9971;DHT22;5026;51.494;11.974;2022-10-15T01:18:49;14.70;99.90
9971;DHT22;5026;51.494;11.974;2022-10-15T01:21:23;14.70;99.90
9971;DHT22;5026;51.494;11.974;2022-10-15T01:24:24;14.70;99.90
9971;DHT22;5026;51.494;11.974;2022-10-15T01:27:30;14.80;99.90
9971;DHT22;5026;51.494;11.974;2022-10-15T01:30:15;14.80;99.90
9971;DHT22;5026;51.494;11.974;2022-10-15T01:32:48;14.80;99.90
9971;DHT22;5026;51.494;11.974;2022-10-15T01:35:25;14.80;99.90
9971;DHT22;5026;51.494;11.974;2022-10-15T01:38:02;14.90;99.90
9971;DHT22;5026;51.494;11.974;2022-10-15T01:40:35;14.90;99.90
9971;DHT22;5026;51.494;11.974;2022-10-15T01:43:07;14.90;99.90
9971;DHT22;5026;51.494;11.974;2022-10-15T01:45:40;14.90;99.90
9971;DHT22;5026;51.494;11.974;2022-10-15T01:48:10;14.90;99.90
9971;DHT22;5026;51.494;11.974;2022-10-15T01:50:41;14.90;99.90
9971;DHT22;5026;51.494;11.974;2022-10-15T01:53:10;14.90;99.90
9971;DHT22;5026;51.494;11.974;2022-10-15T01:55:41;14.90;99.90
9971;DHT22;5026;51.494;11.974;2022-10-15T01:58:09;14.90;99.90
9971;DHT22;5026;51.494;11.974;2022-10-15T02:00:38;15.00;99.90
9971;DHT22;5026;51.494;11.974;2022-10-15T02:03:07;15.00;99.90
9971;DHT22;5026;51.494;11.974;2022-10-15T02:05:38;15.00;99.90
9971;DHT22;5026;51.494;11.974;2022-10-15T02:08:13;15.00;99.90
9971;DHT22;5026;51.494;11.974;2022-10-15T02:10:51;15.00;99.90
9971;DHT22;5026;51.494;11.974;2022-10-15T02:13:23;15.00;99.90
9971;DHT22;5026;51.494;11.974;2022-10-15T02:15:59;15.00;99.90
9971;DHT22;5026;51.494;11.974;2022-10-15T02:18:35;15.00;99.90
9971;DHT22;5026;51.494;11.974;2022-10-15T02:21:07;15.00;99.90
9971;DHT22;5026;51.494;11.974;2022-10-15T02:23:42;15.00;99.90
9971;DHT22;5026;51.494;11.974;2022-10-15T02:26:11;15.00;99.90
9971;DHT22;5026;51.494;11.974;2022-10-15T02:28:43;15.00;99.90
9971;DHT22;5026;51.494;11.974;2022-10-15T02:31:13;15.00;99.90
9971;DHT22;5026;51.494;11.974;2022-10-15T02:33:43;15.00;99.90
9971;DHT22;5026;51.494;11.974;2022-10-15T02:36:10;15.00;99.90
9971;DHT22;5026;51.494;11.974;2022-10-15T02:38:40;15.00;99.90
9971;DHT22;5026;51.494;11.974;2022-10-15T02:43:37;15.00;99.90
9971;DHT22;5026;51.494;11.974;2022-10-15T02:46:04;15.00;99.90
9971;DHT22;5026;51.494;11.974;2022-10-15T02:48:34;15.00;99.90
9971;DHT22;5026;51.494;11.974;2022-10-15T02:51:00;15.00;99.90
9971;DHT22;5026;51.494;11.974;2022-10-15T02:55:55;14.90;99.90
9971;DHT22;5026;51.494;11.974;2022-10-15T02:58:21;15.00;99.90
9971;DHT22;5026;51.494;11.974;2022-10-15T03:00:49;15.00;99.90
9971;DHT22;5026;51.494;11.974;2022-10-15T03:05:44;15.00;99.90
9971;DHT22;5026;51.494;11.974;2022-10-15T03:08:11;15.00;99.90
9971;DHT22;5026;51.494;11.974;2022-10-15T03:13:05;15.00;99.90
9971;DHT22;5026;51.494;11.974;2022-10-15T03:15:32;15.00;99.90
9971;DHT22;5026;51.494;11.974;2022-10-15T03:20:26;15.00;99.90
9971;DHT22;5026;51.494;11.974;2022-10-15T03:22:54;15.00;99.90
9971;DHT22;5026;51.494;11.974;2022-10-15T03:25:21;15.00;99.90
9971;DHT22;5026;51.494;11.974;2022-10-15T03:27:48;15.00;99.90
9971;DHT22;5026;51.494;11.974;2022-10-15T03:30:17;15.00;99.90
9971;DHT22;5026;51.494;11.974;2022-10-15T03:32:44;15.00;99.90
9971;DHT22;5026;51.494;11.974;2022-10-15T03:37:39;14.90;99.90
9971;DHT22;5026;51.494;11.974;2022-10-15T03:40:08;14.90;99.90
9971;DHT22;5026;51.494;11.974;2022-10-15T03:45:02;15.00;99.90
9971;DHT22;5026;51.494;11.974;2022-10-15T03:47:29;15.00;99.90
9971;DHT22;5026;51.494;11.974;2022-10-15T03:52:23;14.90;99.90
9971;DHT22;5026;51.494;11.974;2022-10-15T03:57:19;14.80;99.90
9971;DHT22;5026;51.494;11.974;2022-10-15T03:59:45;14.70;99.90
9971;DHT22;5026;51.494;11.974;2022-10-15T04:09:34;14.60;99.90
9971;DHT22;5026;51.494;11.974;2022-10-15T04:14:29;14.60;99.90
9971;DHT22;5026;51.494;11.974;2022-10-15T04:19:24;14.60;99.90
9971;DHT22;5026;51.494;11.974;2022-10-15T04:21:50;14.60;99.90
9971;DHT22;5026;51.494;11.974;2022-10-15T04:24:17;14.70;99.90
9971;DHT22;5026;51.494;11.974;2022-10-15T04:29:11;14.80;99.90
9971;DHT22;5026;51.494;11.974;2022-10-15T04:31:40;14.80;99.90
9971;DHT22;5026;51.494;11.974;2022-10-15T04:34:07;14.80;99.90
9971;DHT22;5026;51.494;11.974;2022-10-15T04:36:34;14.80;99.90
9971;DHT22;5026;51.494;11.974;2022-10-15T04:39:01;14.80;99.90
9971;DHT22;5026;51.494;11.974;2022-10-15T04:41:28;14.80;99.90
9971;DHT22;5026;51.494;11.974;2022-10-15T04:43:56;14.80;99.90
9971;DHT22;5026;51.494;11.974;2022-10-15T04:46:23;14.80;99.90
9971;DHT22;5026;51.494;11.974;2022-10-15T04:48:52;14.80;99.90
9971;DHT22;5026;51.494;11.974;2022-10-15T04:51:23;14.80;99.90
9971;DHT22;5026;51.494;11.974;2022-10-15T04:53:50;14.80;99.90
9971;DHT22;5026;51.494;11.974;2022-10-15T04:56:18;14.80;99.90
9971;DHT22;5026;51.494;11.974;2022-10-15T04:58:47;14.80;99.90
9971;DHT22;5026;51.494;11.974;2022-10-15T05:01:15;14.80;99.90
9971;DHT22;5026;51.494;11.974;2022-10-15T05:03:44;14.80;99.90
9971;DHT22;5026;51.494;11.974;2022-10-15T05:06:14;14.80;99.90
9971;DHT22;5026;51.494;11.974;2022-10-15T05:11:11;14.80;99.90
9971;DHT22;5026;51.494;11.974;2022-10-15T05:16:11;14.80;99.90
9971;DHT22;5026;51.494;11.974;2022-10-15T05:18:38;14.80;99.90
9971;DHT22;5026;51.494;11.974;2022-10-15T05:21:06;14.80;99.90
9971;DHT22;5026;51.494;11.974;2022-10-15T05:23:34;14.90;99.90
9971;DHT22;5026;51.494;11.974;2022-10-15T05:26:03;14.90;99.90
9971;DHT22;5026;51.494;11.974;2022-10-15T05:31:03;14.90;99.90
9971;DHT22;5026;51.494;11.974;2022-10-15T05:33:31;14.90;99.90
9971;DHT22;5026;51.494;11.974;2022-10-15T05:36:07;14.90;99.90
9971;DHT22;5026;51.494;11.974;2022-10-15T05:38:35;14.90;99.90
9971;DHT22;5026;51.494;11.974;2022-10-15T05:41:02;14.90;99.90
9971;DHT22;5026;51.494;11.974;2022-10-15T05:43:29;15.00;99.90
9971;DHT22;5026;51.494;11.974;2022-10-15T05:45:56;15.00;99.90
9971;DHT22;5026;51.494;11.974;2022-10-15T05:50:50;15.00;99.90
9971;DHT22;5026;51.494;11.974;2022-10-15T05:55:45;15.10;99.90
9971;DHT22;5026;51.494;11.974;2022-10-15T05:58:12;15.10;99.90
9971;DHT22;5026;51.494;11.974;2022-10-15T06:03:11;15.10;99.90
9971;DHT22;5026;51.494;11.974;2022-10-15T06:05:37;15.10;99.90
9971;DHT22;5026;51.494;11.974;2022-10-15T06:08:04;15.10;99.90
9971;DHT22;5026;51.494;11.974;2022-10-15T06:10:34;15.00;99.90
9971;DHT22;5026;51.494;11.974;2022-10-15T06:13:03;15.10;99.90
9971;DHT22;5026;51.494;11.974;2022-10-15T06:15:30;15.10;99.90
9971;DHT22;5026;51.494;11.974;2022-10-15T06:20:24;15.30;99.90
9971;DHT22;5026;51.494;11.974;2022-10-15T06:22:55;15.30;99.90
9971;DHT22;5026;51.494;11.974;2022-10-15T06:30:18;15.40;99.90
9971;DHT22;5026;51.494;11.974;2022-10-15T06:32:47;15.40;99.90
9971;DHT22;5026;51.494;11.974;2022-10-15T06:35:14;15.40;99.90
9971;DHT22;5026;51.494;11.974;2022-10-15T06:40:10;15.40;99.90
9971;DHT22;5026;51.494;11.974;2022-10-15T06:42:37;15.50;99.90
9971;DHT22;5026;51.494;11.974;2022-10-15T06:45:04;15.60;99.90
9971;DHT22;5026;51.494;11.974;2022-10-15T06:47:33;15.60;99.90
9971;DHT22;5026;51.494;11.974;2022-10-15T06:52:28;15.70;99.90
9971;DHT22;5026;51.494;11.974;2022-10-15T06:59:50;15.60;99.90
9971;DHT22;5026;51.494;11.974;2022-10-15T07:04:46;15.70;99.90
9971;DHT22;5026;51.494;11.974;2022-10-15T07:07:13;15.70;99.90
9971;DHT22;5026;51.494;11.974;2022-10-15T07:09:40;15.80;99.90
9971;DHT22;5026;51.494;11.974;2022-10-15T07:12:07;15.90;99.90
9971;DHT22;5026;51.494;11.974;2022-10-15T07:14:34;16.00;99.90
9971;DHT22;5026;51.494;11.974;2022-10-15T07:17:01;16.00;99.90
9971;DHT22;5026;51.494;11.974;2022-10-15T07:21:56;16.10;99.90
9971;DHT22;5026;51.494;11.974;2022-10-15T07:29:17;16.20;99.90
9971;DHT22;5026;51.494;11.974;2022-10-15T07:34:11;16.30;99.90
9971;DHT22;5026;51.494;11.974;2022-10-15T07:39:07;16.60;99.90
9971;DHT22;5026;51.494;11.974;2022-10-15T07:46:28;17.60;99.90
9971;DHT22;5026;51.494;11.974;2022-10-15T07:48:55;17.60;99.90
9971;DHT22;5026;51.494;11.974;2022-10-15T07:53:49;18.10;99.90
9971;DHT22;5026;51.494;11.974;2022-10-15T07:56:17;18.00;99.90
9971;DHT22;5026;51.494;11.974;2022-10-15T08:01:17;17.50;99.90
9971;DHT22;5026;51.494;11.974;2022-10-15T08:06:11;17.30;99.90
9971;DHT22;5026;51.494;11.974;2022-10-15T08:11:06;17.60;99.90
9971;DHT22;5026;51.494;11.974;2022-10-15T08:13:34;18.20;99.90
9971;DHT22;5026;51.494;11.974;2022-10-15T08:16:01;18.30;99.90
9971;DHT22;5026;51.494;11.974;2022-10-15T08:20:58;18.70;99.90
9971;DHT22;5026;51.494;11.974;2022-10-15T08:23:24;18.70;99.90
9971;DHT22;5026;51.494;11.974;2022-10-15T08:25:51;18.60;99.90
9971;DHT22;5026;51.494;11.974;2022-10-15T08:30:47;18.60;99.90
9971;DHT22;5026;51.494;11.974;2022-10-15T08:33:13;18.60;99.90
9971;DHT22;5026;51.494;11.974;2022-10-15T08:35:41;18.60;99.90
9971;DHT22;5026;51.494;11.974;2022-10-15T08:43:03;18.40;99.90
9971;DHT22;5026;51.494;11.974;2022-10-15T08:45:34;18.40;99.90
9971;DHT22;5026;51.494;11.974;2022-10-15T08:48:07;18.30;99.90
9971;DHT22;5026;51.494;11.974;2022-10-15T08:50:40;18.30;99.90
9971;DHT22;5026;51.494;11.974;2022-10-15T08:53:11;18.30;99.90
9971;DHT22;5026;51.494;11.974;2022-10-15T08:55:42;18.20;99.90
9971;DHT22;5026;51.494;11.974;2022-10-15T08:58:13;18.20;99.90
9971;DHT22;5026;51.494;11.974;2022-10-15T09:00:45;18.40;99.90
9971;DHT22;5026;51.494;11.974;2022-10-15T09:03:25;18.50;99.90
9971;DHT22;5026;51.494;11.974;2022-10-15T09:05:59;18.60;99.90
9971;DHT22;5026;51.494;11.974;2022-10-15T09:08:30;18.60;99.90
9971;DHT22;5026;51.494;11.974;2022-10-15T09:11:07;18.70;99.90
9971;DHT22;5026;51.494;11.974;2022-10-15T09:13:39;18.80;99.90
9971;DHT22;5026;51.494;11.974;2022-10-15T09:16:12;18.90;99.90
9971;DHT22;5026;51.494;11.974;2022-10-15T09:18:44;18.80;99.90
9971;DHT22;5026;51.494;11.974;2022-10-15T09:21:12;18.90;99.90
9971;DHT22;5026;51.494;11.974;2022-10-15T09:23:41;18.90;99.90
9971;DHT22;5026;51.494;11.974;2022-10-15T09:26:20;18.90;99.90
9971;DHT22;5026;51.494;11.974;2022-10-15T09:28:59;18.80;99.90
9971;DHT22;5026;51.494;11.974;2022-10-15T09:31:32;18.70;99.90
9971;DHT22;5026;51.494;11.974;2022-10-15T09:34:06;18.70;99.90
9971;DHT22;5026;51.494;11.974;2022-10-15T09:36:40;18.70;99.90
9971;DHT22;5026;51.494;11.974;2022-10-15T09:42:06;18.90;99.90
9971;DHT22;5026;51.494;11.974;2022-10-15T09:44:38;19.00;99.90
9971;DHT22;5026;51.494;11.974;2022-10-15T09:47:14;19.10;99.90
9971;DHT22;5026;51.494;11.974;2022-10-15T09:49:43;19.30;99.90
9971;DHT22;5026;51.494;11.974;2022-10-15T09:52:16;19.40;99.90
9971;DHT22;5026;51.494;11.974;2022-10-15T09:54:49;19.50;99.90
9971;DHT22;5026;51.494;11.974;2022-10-15T09:57:18;19.70;99.90
9971;DHT22;5026;51.494;11.974;2022-10-15T09:59:54;19.80;99.80
9971;DHT22;5026;51.494;11.974;2022-10-15T10:02:23;19.70;99.60
9971;DHT22;5026;51.494;11.974;2022-10-15T10:04:52;19.90;99.60
9971;DHT22;5026;51.494;11.974;2022-10-15T10:07:30;19.70;99.60
9971;DHT22;5026;51.494;11.974;2022-10-15T10:09:59;19.80;99.50
9971;DHT22;5026;51.494;11.974;2022-10-15T10:12:30;19.80;99.50
9971;DHT22;5026;51.494;11.974;2022-10-15T10:14:59;19.80;99.40
9971;DHT22;5026;51.494;11.974;2022-10-15T10:17:28;19.90;99.50
9971;DHT22;5026;51.494;11.974;2022-10-15T10:20:14;19.90;99.30
9971;DHT22;5026;51.494;11.974;2022-10-15T10:22:43;19.90;99.50
9971;DHT22;5026;51.494;11.974;2022-10-15T10:25:28;20.10;99.40
9971;DHT22;5026;51.494;11.974;2022-10-15T10:27:58;20.20;99.20
9971;DHT22;5026;51.494;11.974;2022-10-15T10:30:32;20.10;99.10
9971;DHT22;5026;51.494;11.974;2022-10-15T10:35:44;20.20;99.10
9971;DHT22;5026;51.494;11.974;2022-10-15T10:38:19;20.20;99.00
9971;DHT22;5026;51.494;11.974;2022-10-15T10:40:49;20.30;98.90
9971;DHT22;5026;51.494;11.974;2022-10-15T10:43:20;20.40;98.80
9971;DHT22;5026;51.494;11.974;2022-10-15T10:45:53;20.40;98.70
9971;DHT22;5026;51.494;11.974;2022-10-15T10:48:23;20.40;98.70
9971;DHT22;5026;51.494;11.974;2022-10-15T10:51:04;20.40;98.80
9971;DHT22;5026;51.494;11.974;2022-10-15T10:53:33;20.40;98.70
9971;DHT22;5026;51.494;11.974;2022-10-15T10:56:03;20.50;98.60
9971;DHT22;5026;51.494;11.974;2022-10-15T10:58:33;20.60;98.60
9971;DHT22;5026;51.494;11.974;2022-10-15T11:03:34;20.60;98.40
9971;DHT22;5026;51.494;11.974;2022-10-15T11:06:19;20.70;98.30
9971;DHT22;5026;51.494;11.974;2022-10-15T11:08:55;20.60;98.30
9971;DHT22;5026;51.494;11.974;2022-10-15T11:11:29;20.50;98.10
9971;DHT22;5026;51.494;11.974;2022-10-15T11:14:04;20.50;98.20
9971;DHT22;5026;51.494;11.974;2022-10-15T11:16:40;20.40;98.20
9971;DHT22;5026;51.494;11.974;2022-10-15T11:19:17;20.40;98.10
9971;DHT22;5026;51.494;11.974;2022-10-15T11:22:02;20.30;98.20
9971;DHT22;5026;51.494;11.974;2022-10-15T11:24:36;20.30;98.30
9971;DHT22;5026;51.494;11.974;2022-10-15T11:27:21;20.10;98.40
9971;DHT22;5026;51.494;11.974;2022-10-15T11:29:55;20.10;98.50
9971;DHT22;5026;51.494;11.974;2022-10-15T11:32:33;20.00;98.50
9971;DHT22;5026;51.494;11.974;2022-10-15T11:35:28;20.00;98.60
9971;DHT22;5026;51.494;11.974;2022-10-15T11:38:12;20.10;98.60
9971;DHT22;5026;51.494;11.974;2022-10-15T11:40:48;20.20;98.30
9971;DHT22;5026;51.494;11.974;2022-10-15T11:43:36;20.10;98.30
9971;DHT22;5026;51.494;11.974;2022-10-15T11:46:10;20.10;98.30
9971;DHT22;5026;51.494;11.974;2022-10-15T11:48:51;20.90;98.50
9971;DHT22;5026;51.494;11.974;2022-10-15T11:51:25;20.40;98.10
9971;DHT22;5026;51.494;11.974;2022-10-15T11:54:17;20.40;98.10
9971;DHT22;5026;51.494;11.974;2022-10-15T11:56:51;20.30;98.10
9971;DHT22;5026;51.494;11.974;2022-10-15T11:59:29;20.20;98.10
9971;DHT22;5026;51.494;11.974;2022-10-15T12:02:00;20.20;98.20
9971;DHT22;5026;51.494;11.974;2022-10-15T12:04:35;20.10;98.30
9971;DHT22;5026;51.494;11.974;2022-10-15T12:07:05;20.20;98.30
9971;DHT22;5026;51.494;11.974;2022-10-15T12:09:36;20.30;98.30
9971;DHT22;5026;51.494;11.974;2022-10-15T12:12:11;20.50;98.30
9971;DHT22;5026;51.494;11.974;2022-10-15T12:14:45;20.70;98.10
9971;DHT22;5026;51.494;11.974;2022-10-15T12:17:20;20.80;97.80
9971;DHT22;5026;51.494;11.974;2022-10-15T12:19:52;20.90;97.70
9971;DHT22;5026;51.494;11.974;2022-10-15T12:22:34;20.80;97.70
9971;DHT22;5026;51.494;11.974;2022-10-15T12:25:05;20.80;97.70
9971;DHT22;5026;51.494;11.974;2022-10-15T12:27:33;20.80;97.60
9971;DHT22;5026;51.494;11.974;2022-10-15T12:30:22;20.80;97.60
9971;DHT22;5026;51.494;11.974;2022-10-15T12:32:49;20.80;97.50
9971;DHT22;5026;51.494;11.974;2022-10-15T12:35:35;20.80;97.50
9971;DHT22;5026;51.494;11.974;2022-10-15T12:38:19;20.70;97.60
9971;DHT22;5026;51.494;11.974;2022-10-15T12:40:55;20.70;97.60
9971;DHT22;5026;51.494;11.974;2022-10-15T12:43:22;20.80;97.50
9971;DHT22;5026;51.494;11.974;2022-10-15T12:45:51;20.80;97.30
9971;DHT22;5026;51.494;11.974;2022-10-15T12:48:27;20.90;97.10
9971;DHT22;5026;51.494;11.974;2022-10-15T12:56:35;20.70;96.60
9971;DHT22;5026;51.494;11.974;2022-10-15T12:59:02;20.60;96.50
9971;DHT22;5026;51.494;11.974;2022-10-15T13:01:49;20.50;96.40
9971;DHT22;5026;51.494;11.974;2022-10-15T13:04:17;20.30;96.40
9971;DHT22;5026;51.494;11.974;2022-10-15T13:06:45;20.30;96.50
9971;DHT22;5026;51.494;11.974;2022-10-15T13:09:27;20.30;96.60
9971;DHT22;5026;51.494;11.974;2022-10-15T13:11:58;20.30;96.50
9971;DHT22;5026;51.494;11.974;2022-10-15T13:14:30;20.40;96.60
9971;DHT22;5026;51.494;11.974;2022-10-15T13:17:00;20.40;96.50
9971;DHT22;5026;51.494;11.974;2022-10-15T13:19:29;20.40;96.50
9971;DHT22;5026;51.494;11.974;2022-10-15T13:21:59;20.40;96.50
9971;DHT22;5026;51.494;11.974;2022-10-15T13:24:28;20.40;96.50
9971;DHT22;5026;51.494;11.974;2022-10-15T13:26:59;20.40;96.50
9971;DHT22;5026;51.494;11.974;2022-10-15T13:29:27;20.50;96.50
9971;DHT22;5026;51.494;11.974;2022-10-15T13:31:55;21.60;96.90
9971;DHT22;5026;51.494;11.974;2022-10-15T13:34:26;24.40;97.90
9971;DHT22;5026;51.494;11.974;2022-10-15T13:36:54;20.40;96.50
9971;DHT22;5026;51.494;11.974;2022-10-15T13:39:29;20.30;96.40
9971;DHT22;5026;51.494;11.974;2022-10-15T13:42:20;20.20;96.50
9971;DHT22;5026;51.494;11.974;2022-10-15T13:44:57;20.30;96.60
9971;DHT22;5026;51.494;11.974;2022-10-15T13:47:26;20.30;96.60
9971;DHT22;5026;51.494;11.974;2022-10-15T13:50:15;20.30;96.70
9971;DHT22;5026;51.494;11.974;2022-10-15T13:52:45;20.30;96.70
9971;DHT22;5026;51.494;11.974;2022-10-15T13:55:17;20.30;96.80
9971;DHT22;5026;51.494;11.974;2022-10-15T13:57:46;20.20;96.90
9971;DHT22;5026;51.494;11.974;2022-10-15T14:00:22;20.10;97.00
9971;DHT22;5026;51.494;11.974;2022-10-15T14:03:13;19.90;97.00
9971;DHT22;5026;51.494;11.974;2022-10-15T14:05:40;19.80;97.20
9971;DHT22;5026;51.494;11.974;2022-10-15T14:08:18;19.60;97.30
9971;DHT22;5026;51.494;11.974;2022-10-15T14:13:14;19.60;97.40
9971;DHT22;5026;51.494;11.974;2022-10-15T14:15:44;19.60;97.50
9971;DHT22;5026;51.494;11.974;2022-10-15T14:18:13;19.60;97.50
9971;DHT22;5026;51.494;11.974;2022-10-15T14:20:45;19.60;97.40
9971;DHT22;5026;51.494;11.974;2022-10-15T14:23:20;19.70;97.50
9971;DHT22;5026;51.494;11.974;2022-10-15T14:25:52;19.60;97.50
9971;DHT22;5026;51.494;11.974;2022-10-15T14:28:22;19.70;97.50
9971;DHT22;5026;51.494;11.974;2022-10-15T14:33:43;19.60;97.50
9971;DHT22;5026;51.494;11.974;2022-10-15T14:36:13;19.50;97.60
9971;DHT22;5026;51.494;11.974;2022-10-15T14:38:47;19.60;97.60
9971;DHT22;5026;51.494;11.974;2022-10-15T14:41:33;19.70;97.70
9971;DHT22;5026;51.494;11.974;2022-10-15T14:44:17;19.70;97.70
9971;DHT22;5026;51.494;11.974;2022-10-15T14:46:46;19.70;97.70
9971;DHT22;5026;51.494;11.974;2022-10-15T14:49:22;19.70;97.80
9971;DHT22;5026;51.494;11.974;2022-10-15T14:51:54;19.70;97.80
9971;DHT22;5026;51.494;11.974;2022-10-15T14:54:25;19.70;97.80
9971;DHT22;5026;51.494;11.974;2022-10-15T14:56:56;19.80;97.80
9971;DHT22;5026;51.494;11.974;2022-10-15T14:59:29;19.70;97.80
9971;DHT22;5026;51.494;11.974;2022-10-15T15:01:58;19.70;97.80
9971;DHT22;5026;51.494;11.974;2022-10-15T15:04:35;19.70;97.80
9971;DHT22;5026;51.494;11.974;2022-10-15T15:07:08;19.70;97.90
9971;DHT22;5026;51.494;11.974;2022-10-15T15:14:33;19.50;98.00
9971;DHT22;5026;51.494;11.974;2022-10-15T15:24:22;19.40;98.30
9971;DHT22;5026;51.494;11.974;2022-10-15T15:26:48;19.40;98.30
9971;DHT22;5026;51.494;11.974;2022-10-15T15:29:15;19.30;98.40
9971;DHT22;5026;51.494;11.974;2022-10-15T15:31:43;19.20;98.40
9971;DHT22;5026;51.494;11.974;2022-10-15T15:34:10;19.20;98.50
9971;DHT22;5026;51.494;11.974;2022-10-15T15:36:37;19.10;98.50
9971;DHT22;5026;51.494;11.974;2022-10-15T15:41:31;19.10;98.60
9971;DHT22;5026;51.494;11.974;2022-10-15T15:43:58;19.00;98.60
9971;DHT22;5026;51.494;11.974;2022-10-15T15:46:26;19.00;98.70
9971;DHT22;5026;51.494;11.974;2022-10-15T15:48:54;19.00;98.70
9971;DHT22;5026;51.494;11.974;2022-10-15T15:51:25;19.00;98.70
9971;DHT22;5026;51.494;11.974;2022-10-15T15:53:53;18.90;98.70
9971;DHT22;5026;51.494;11.974;2022-10-15T15:56:21;18.80;98.80
9971;DHT22;5026;51.494;11.974;2022-10-15T16:03:42;18.80;98.90
9971;DHT22;5026;51.494;11.974;2022-10-15T16:06:10;18.80;98.90
9971;DHT22;5026;51.494;11.974;2022-10-15T16:13:33;18.70;99.00
9971;DHT22;5026;51.494;11.974;2022-10-15T16:23:22;18.70;99.00
9971;DHT22;5026;51.494;11.974;2022-10-15T16:25:49;18.60;99.00
9971;DHT22;5026;51.494;11.974;2022-10-15T16:28:18;18.60;99.00
9971;DHT22;5026;51.494;11.974;2022-10-15T16:30:45;18.60;99.00
9971;DHT22;5026;51.494;11.974;2022-10-15T16:35:39;18.60;99.00
9971;DHT22;5026;51.494;11.974;2022-10-15T16:40:35;18.60;99.10
9971;DHT22;5026;51.494;11.974;2022-10-15T16:52:50;18.50;99.20
9971;DHT22;5026;51.494;11.974;2022-10-15T16:55:17;18.40;99.20
9971;DHT22;5026;51.494;11.974;2022-10-15T16:57:45;18.50;99.20
9971;DHT22;5026;51.494;11.974;2022-10-15T17:00:12;18.50;99.30
9971;DHT22;5026;51.494;11.974;2022-10-15T17:05:07;18.50;99.40
9971;DHT22;5026;51.494;11.974;2022-10-15T17:12:28;18.20;99.50
9971;DHT22;5026;51.494;11.974;2022-10-15T17:14:56;18.20;99.60
9971;DHT22;5026;51.494;11.974;2022-10-15T17:19:50;18.20;99.70
9971;DHT22;5026;51.494;11.974;2022-10-15T17:22:17;18.20;99.70
9971;DHT22;5026;51.494;11.974;2022-10-15T17:24:47;18.20;99.70
9971;DHT22;5026;51.494;11.974;2022-10-15T17:29:41;18.30;99.80
9971;DHT22;5026;51.494;11.974;2022-10-15T17:32:10;18.20;99.80
9971;DHT22;5026;51.494;11.974;2022-10-15T17:39:32;18.20;99.90
9971;DHT22;5026;51.494;11.974;2022-10-15T17:41:59;18.30;99.90
9971;DHT22;5026;51.494;11.974;2022-10-15T17:44:26;18.20;99.90
9971;DHT22;5026;51.494;11.974;2022-10-15T17:46:52;18.20;99.90
9971;DHT22;5026;51.494;11.974;2022-10-15T17:49:21;18.20;99.90
9971;DHT22;5026;51.494;11.974;2022-10-15T17:51:47;18.20;99.90
9971;DHT22;5026;51.494;11.974;2022-10-15T17:56:41;18.10;99.90
9971;DHT22;5026;51.494;11.974;2022-10-15T17:59:10;18.10;99.90
9971;DHT22;5026;51.494;11.974;2022-10-15T18:01:39;18.00;99.90
9971;DHT22;5026;51.494;11.974;2022-10-15T18:04:06;17.90;99.90
9971;DHT22;5026;51.494;11.974;2022-10-15T18:06:34;17.90;99.90
9971;DHT22;5026;51.494;11.974;2022-10-15T18:09:01;17.90;99.90
9971;DHT22;5026;51.494;11.974;2022-10-15T18:11:30;17.90;99.90
9971;DHT22;5026;51.494;11.974;2022-10-15T18:18:52;17.90;99.90
9971;DHT22;5026;51.494;11.974;2022-10-15T18:21:20;17.90;99.90
9971;DHT22;5026;51.494;11.974;2022-10-15T18:23:49;19.50;99.90
9971;DHT22;5026;51.494;11.974;2022-10-15T18:26:18;17.90;99.90
9971;DHT22;5026;51.494;11.974;2022-10-15T18:28:46;17.90;99.90
9971;DHT22;5026;51.494;11.974;2022-10-15T18:31:14;17.90;99.90
9971;DHT22;5026;51.494;11.974;2022-10-15T18:33:42;17.90;99.90
9971;DHT22;5026;51.494;11.974;2022-10-15T18:36:11;17.80;99.90
9971;DHT22;5026;51.494;11.974;2022-10-15T18:41:13;17.70;99.90
9971;DHT22;5026;51.494;11.974;2022-10-15T18:43:40;17.60;99.90
9971;DHT22;5026;51.494;11.974;2022-10-15T18:46:07;21.00;99.90
9971;DHT22;5026;51.494;11.974;2022-10-15T18:48:35;17.80;99.90
9971;DHT22;5026;51.494;11.974;2022-10-15T18:51:05;17.70;99.90
9971;DHT22;5026;51.494;11.974;2022-10-15T18:53:33;17.70;99.90
9971;DHT22;5026;51.494;11.974;2022-10-15T18:58:28;17.60;99.90
9971;DHT22;5026;51.494;11.974;2022-10-15T19:05:50;17.60;99.90
9971;DHT22;5026;51.494;11.974;2022-10-15T19:10:44;17.40;99.90
9971;DHT22;5026;51.494;11.974;2022-10-15T19:15:39;17.30;99.90
9971;DHT22;5026;51.494;11.974;2022-10-15T19:18:06;17.10;99.90
9971;DHT22;5026;51.494;11.974;2022-10-15T19:20:37;17.20;99.90
9971;DHT22;5026;51.494;11.974;2022-10-15T19:23:04;17.10;99.90
9971;DHT22;5026;51.494;11.974;2022-10-15T19:27:58;17.10;99.90
9971;DHT22;5026;51.494;11.974;2022-10-15T19:30:25;17.00;99.90
9971;DHT22;5026;51.494;11.974;2022-10-15T19:32:55;17.00;99.90
9971;DHT22;5026;51.494;11.974;2022-10-15T19:35:22;16.80;99.90
9971;DHT22;5026;51.494;11.974;2022-10-15T19:37:48;16.70;99.90
9971;DHT22;5026;51.494;11.974;2022-10-15T19:40:15;16.60;99.90
9971;DHT22;5026;51.494;11.974;2022-10-15T19:45:10;16.50;99.90
9971;DHT22;5026;51.494;11.974;2022-10-15T19:50:06;16.40;99.90
9971;DHT22;5026;51.494;11.974;2022-10-15T19:52:33;16.30;99.90
9971;DHT22;5026;51.494;11.974;2022-10-15T19:57:28;16.10;99.90